Time;durP1;ratioP1;P1;durP2;ratioP2;P2;SDS_P1;SDS_P2;PMS_P1;PMS_P2;Temp;Humidity;BMP_temperature;BMP_pressure;BME280_temperature;BME280_humidity;BME280_pressure;Samples;Min_cycle;Max_cycle;Signal;HPM_P1;HPM_P2
2022/11/03 00:00:36;;;;;;;8.73;2.27;;;;;;;-145.69;100.00;52487.97;5166336;27;20600;-86
2022/11/03 00:03:02;;;;;;;13.37;2.10;;;;;;;-145.69;100.00;52511.72;5147736;27;20236;-85
2022/11/03 00:08:17;;;;;;;13.33;2.10;;;;;;;-145.69;100.00;52484.00;5147091;27;20222;-85
2022/11/03 00:10:45;;;;;;;8.93;2.10;;;;;;;-145.69;100.00;52517.66;5145835;27;20192;-86
2022/11/03 00:13:17;;;;;;;13.50;1.83;;;;;;;-145.69;100.00;52505.78;5150616;27;20198;-85
2022/11/03 00:15:49;;;;;;;14.00;2.10;;;;;;;-145.69;100.00;52511.72;5163858;27;20259;-85
2022/11/03 00:18:15;;;;;;;9.83;2.00;;;;;;;-145.69;100.00;52517.66;5161896;27;20197;-86
2022/11/03 00:20:43;;;;;;;6.63;2.17;;;;;;;-145.69;100.00;52511.72;5161088;27;20200;-86
2022/11/03 00:23:09;;;;;;;8.60;2.40;;;;;;;-145.69;100.00;52507.75;5159982;27;20203;-86
2022/11/03 00:25:36;;;;;;;12.47;2.23;;;;;;;-145.69;100.00;52507.75;5151130;27;20196;-86
2022/11/03 00:28:06;;;;;;;13.50;2.10;;;;;;;-145.69;100.00;52513.69;5138505;27;20209;-86
2022/11/03 00:30:32;;;;;;;10.57;1.63;;;;;;;-145.69;100.00;52511.72;5137525;27;20204;-86
2022/11/03 00:33:02;;;;;;;12.00;2.20;;;;;;;-145.69;100.00;52527.56;5137099;27;20211;-86
2022/11/03 00:35:28;;;;;;;9.90;2.30;;;;;;;-145.69;100.00;52507.75;5137292;27;20227;-86
2022/11/03 00:37:56;;;;;;;5.57;1.87;;;;;;;-145.69;100.00;52537.47;5147774;27;20192;-86
2022/11/03 00:40:23;;;;;;;10.53;2.33;;;;;;;-145.69;100.00;52533.50;5158813;27;20200;-87
2022/11/03 00:42:49;;;;;;;8.07;1.93;;;;;;;-145.69;100.00;52509.75;5145723;27;20185;-87
2022/11/03 00:45:16;;;;;;;9.97;2.23;;;;;;;-145.69;100.00;52497.84;5136737;27;20192;-86
2022/11/03 00:48:28;;;;;;;7.50;1.93;;;;;;;-145.69;100.00;52495.88;5137589;27;20207;-86
2022/11/03 00:50:29;;;;;;;4.77;2.00;;;;;;;-145.69;100.00;52525.59;5149556;27;20279;-87
2022/11/03 00:52:57;;;;;;;17.33;2.33;;;;;;;-145.69;100.00;52499.84;5157036;27;20225;-86
2022/11/03 00:55:23;;;;;;;10.53;2.23;;;;;;;-145.69;100.00;52529.53;5157562;27;20239;-87
2022/11/03 00:57:52;;;;;;;6.57;2.70;;;;;;;-145.69;100.00;52519.63;5157679;27;20234;-86
2022/11/03 01:00:19;;;;;;;12.80;2.60;;;;;;;-145.69;100.00;52541.44;5157594;27;20211;-86
2022/11/03 01:02:48;;;;;;;7.83;2.17;;;;;;;-145.69;100.00;52535.47;5141170;27;20192;-86
2022/11/03 01:08:03;;;;;;;18.17;2.73;;;;;;;-145.69;100.00;52547.38;5136611;27;20283;-86
2022/11/03 01:10:30;;;;;;;9.03;2.43;;;;;;;-145.69;100.00;52527.56;5136417;27;20281;-86
2022/11/03 01:12:56;;;;;;;13.53;2.30;;;;;;;-145.69;100.00;52531.53;5150210;27;20188;-86
2022/11/03 01:15:23;;;;;;;10.17;2.30;;;;;;;-145.69;100.00;52487.97;5159847;27;20708;-86
2022/11/03 01:17:50;;;;;;;12.33;2.20;;;;;;;-145.69;100.00;52511.72;5160388;27;20555;-87
2022/11/03 01:20:18;;;;;;;12.57;2.30;;;;;;;-145.69;100.00;52531.53;5160270;27;20223;-85
2022/11/03 01:22:45;;;;;;;12.17;2.67;;;;;;;-145.69;100.00;52499.84;5150965;27;20212;-86
2022/11/03 01:25:15;;;;;;;17.83;3.00;;;;;;;-145.69;100.00;52531.53;5139356;27;20201;-86
2022/11/03 01:27:43;;;;;;;14.23;2.33;;;;;;;-145.69;100.00;52503.81;5137667;27;20196;-86
2022/11/03 01:30:11;;;;;;;8.87;2.50;;;;;;;-145.69;100.00;52487.97;5137239;27;20201;-86
2022/11/03 01:32:37;;;;;;;9.47;2.33;;;;;;;-145.69;100.00;52503.81;5144637;27;20275;-86
2022/11/03 01:35:07;;;;;;;13.47;2.10;;;;;;;-145.69;100.00;52491.91;5151415;27;20231;-86
2022/11/03 01:37:33;;;;;;;13.13;2.57;;;;;;;-145.69;100.00;52507.75;5135898;27;20207;-85
2022/11/03 01:40:00;;;;;;;7.83;2.10;;;;;;;-145.69;100.00;52519.63;5136364;27;20205;-85
2022/11/03 01:42:28;;;;;;;12.53;2.47;;;;;;;-145.69;100.00;52491.91;5136305;27;20196;-85
2022/11/03 01:44:54;;;;;;;6.73;1.93;;;;;;;-145.69;100.00;52507.75;5145336;27;20192;-86
2022/11/03 01:47:29;;;;;;;6.70;2.20;;;;;;;-145.69;100.00;52517.66;5156637;27;20211;-86
2022/11/03 01:50:00;;;;;;;5.73;1.80;;;;;;;-145.69;100.00;52509.75;5156524;27;20200;-86
2022/11/03 01:52:32;;;;;;;11.73;2.03;;;;;;;-145.69;100.00;52527.56;5156292;27;20192;-84
2022/11/03 01:55:07;;;;;;;12.90;2.33;;;;;;;-145.69;100.00;52511.72;5156551;27;20211;-87
2022/11/03 01:57:41;;;;;;;7.60;2.30;;;;;;;-145.69;100.00;52525.59;5141552;27;20236;-86
2022/11/03 02:00:09;;;;;;;15.03;2.90;;;;;;;-145.69;100.00;52555.28;5135215;27;20200;-85
2022/11/03 02:02:35;;;;;;;17.47;2.33;;;;;;;-145.69;100.00;52521.63;5135291;27;20193;-86
2022/11/03 02:05:06;;;;;;;10.83;2.67;;;;;;;-145.69;100.00;52551.31;5135384;27;20197;-86
2022/11/03 02:07:38;;;;;;;15.67;2.97;;;;;;;-145.69;100.00;52523.59;5135314;27;20204;-86
2022/11/03 02:10:08;;;;;;;11.77;2.80;;;;;;;-145.69;100.00;52507.75;5152752;27;20192;-86
2022/11/03 02:12:37;;;;;;;12.87;2.93;;;;;;;-145.69;100.00;52543.41;5154817;27;20196;-86
2022/11/03 02:15:07;;;;;;;17.47;3.40;;;;;;;-145.69;100.00;52505.78;5155717;27;20200;-85
2022/11/03 02:17:37;;;;;;;20.80;4.32;;;;;;;-145.69;100.00;52531.53;5155455;27;20478;-86
2022/11/03 02:20:07;;;;;;;15.53;4.07;;;;;;;-145.69;100.00;52543.41;5155499;27;20210;-85
2022/11/03 02:23:07;;;;;;;19.30;3.80;;;;;;;-145.69;100.00;52511.72;5156019;27;20207;-85
2022/11/03 02:25:41;;;;;;;14.77;3.30;;;;;;;-145.69;100.00;52531.53;5155872;27;20585;-85
2022/11/03 02:28:08;;;;;;;15.33;3.67;;;;;;;-145.69;100.00;52495.88;5156209;27;20203;-85
2022/11/03 02:30:40;;;;;;;19.00;3.40;;;;;;;-145.69;100.00;52539.44;5155974;27;20196;-87
2022/11/03 02:33:14;;;;;;;19.37;4.03;;;;;;;-145.69;100.00;52537.47;5154842;27;20192;-87
2022/11/03 02:35:46;;;;;;;9.33;3.27;;;;;;;-145.69;100.00;52511.72;5155653;27;20224;-87
2022/11/03 02:38:17;;;;;;;11.30;3.60;;;;;;;-145.69;100.00;52557.28;5155396;27;20200;-87
2022/11/03 02:40:50;;;;;;;12.93;3.10;;;;;;;-145.69;100.00;52507.75;5115479;28;20208;-86
2022/11/03 02:43:18;;;;;;;11.33;2.80;;;;;;;-145.69;100.00;52509.75;5118196;27;20204;-87
2022/11/03 02:45:48;;;;;;;11.63;3.27;;;;;;;-145.69;100.00;52499.84;5146080;27;20207;-86
2022/11/03 02:48:17;;;;;;;7.70;2.83;;;;;;;-145.69;100.00;52515.69;5157224;27;20200;-86
2022/11/03 02:50:44;;;;;;;9.03;2.57;;;;;;;-145.69;100.00;52533.50;5155811;27;20654;-85
2022/11/03 02:53:12;;;;;;;15.57;3.60;;;;;;;-145.69;100.00;52539.44;5157664;27;20202;-86
2022/11/03 02:55:46;;;;;;;12.37;3.00;;;;;;;-145.69;100.00;52507.75;5155189;27;20196;-86
2022/11/03 02:58:20;;;;;;;12.97;3.23;;;;;;;-145.69;100.00;52541.44;5113936;28;20224;-87
2022/11/03 03:00:52;;;;;;;10.20;3.00;;;;;;;-145.69;100.00;52507.75;5113706;28;20201;-86
2022/11/03 03:03:24;;;;;;;14.40;2.90;;;;;;;-145.69;100.00;52547.38;5114026;28;20204;-86
2022/11/03 03:05:56;;;;;;;11.23;3.45;;;;;;;-145.69;100.00;52527.56;5114089;28;20446;-86
2022/11/03 03:08:27;;;;;;;12.47;3.67;;;;;;;-145.69;100.00;52509.75;5119245;27;20559;-86
2022/11/03 03:10:55;;;;;;;17.77;3.30;;;;;;;-145.69;100.00;52519.63;5134348;28;20207;-85
2022/11/03 03:13:24;;;;;;;11.93;3.27;;;;;;;-145.69;100.00;52539.44;5134650;27;20663;-86
2022/11/03 03:16:05;;;;;;;12.33;3.37;;;;;;;-145.69;100.00;52509.75;5134303;27;20236;-86
2022/11/03 03:18:42;;;;;;;19.60;3.57;;;;;;;-145.69;100.00;52507.75;5134463;27;20196;-86
2022/11/03 03:21:15;;;;;;;15.93;3.23;;;;;;;-145.69;100.00;52507.75;5147544;27;20654;-86
2022/11/03 03:23:48;;;;;;;13.90;3.27;;;;;;;-145.69;100.00;52547.38;5160413;27;20556;-86
2022/11/03 03:26:20;;;;;;;14.00;3.40;;;;;;;-145.69;100.00;52543.41;5156137;27;20661;-86
2022/11/03 03:28:53;;;;;;;14.07;3.60;;;;;;;-145.69;100.00;52515.69;5159520;27;20200;-86
2022/11/03 03:31:22;;;;;;;15.23;3.40;;;;;;;-145.69;100.00;52507.75;5148105;27;20195;-86
2022/11/03 03:33:50;;;;;;;14.93;3.00;;;;;;;-145.69;100.00;52537.47;5140009;27;20236;-85
2022/11/03 03:36:19;;;;;;;12.00;3.07;;;;;;;-145.69;100.00;52519.63;5136837;27;20232;-85
2022/11/03 03:38:50;;;;;;;11.73;3.43;;;;;;;-145.69;100.00;52541.44;5133781;27;20243;-86
2022/11/03 03:41:21;;;;;;;14.63;3.77;;;;;;;-145.69;100.00;52521.63;5137096;28;20201;-85
2022/11/03 03:43:52;;;;;;;18.97;3.60;;;;;;;-145.69;100.00;52541.44;5151394;27;20192;-86
2022/11/03 03:46:22;;;;;;;10.33;3.10;;;;;;;-145.69;100.00;52499.84;5155353;27;20291;-85
2022/11/03 03:48:48;;;;;;;18.30;2.80;;;;;;;-145.69;100.00;52501.81;5157574;27;20204;-86
2022/11/03 03:51:25;;;;;;;9.73;3.03;;;;;;;-145.69;100.00;52539.44;5157527;27;20198;-86
2022/11/03 03:53:53;;;;;;;10.93;3.40;;;;;;;-145.69;100.00;52549.34;5147179;27;20196;-85
2022/11/03 03:56:26;;;;;;;12.30;3.10;;;;;;;-145.69;100.00;52505.78;5143816;27;20227;-86
2022/11/03 03:58:54;;;;;;;10.73;3.13;;;;;;;-145.69;100.00;52529.53;5143314;27;20211;-86
2022/11/03 04:01:21;;;;;;;15.87;3.20;;;;;;;-145.69;100.00;52561.22;5140666;27;20288;-86
2022/11/03 04:03:47;;;;;;;7.93;3.50;;;;;;;-145.69;100.00;52553.31;5142774;27;20207;-85
2022/11/03 04:06:14;;;;;;;14.77;3.30;;;;;;;-145.69;100.00;52537.47;5159680;27;20196;-86
2022/11/03 04:08:42;;;;;;;6.97;2.73;;;;;;;-145.69;100.00;52527.56;5160638;27;20672;-86
2022/11/03 04:22:20;;;;;;;13.57;3.73;;;;;;;-145.69;100.00;52527.56;5143488;27;20222;-85
2022/11/03 04:24:48;;;;;;;7.83;2.97;;;;;;;-145.69;100.00;52565.19;5141814;27;20559;-86
2022/11/03 04:27:31;;;;;;;7.87;2.97;;;;;;;-145.69;100.00;52555.28;5143337;27;20204;-86
2022/11/03 04:30:02;;;;;;;9.27;3.10;;;;;;;-145.69;100.00;52509.75;5155036;27;20268;-85
2022/11/03 04:32:28;;;;;;;11.30;3.03;;;;;;;-145.69;100.00;52513.69;5165173;27;20200;-85
2022/11/03 04:34:55;;;;;;;10.53;2.90;;;;;;;-145.69;100.00;52547.38;5163240;27;20295;-86
2022/11/03 04:37:21;;;;;;;10.80;3.07;;;;;;;-145.69;100.00;52547.38;5158861;27;20235;-85
2022/11/03 04:39:48;;;;;;;8.50;2.57;;;;;;;-145.69;100.00;52521.63;5153555;27;20205;-86
2022/11/03 04:42:18;;;;;;;7.93;2.77;;;;;;;-145.69;100.00;52545.38;5144572;27;20250;-86
2022/11/03 04:44:46;;;;;;;7.60;3.20;;;;;;;-145.69;100.00;52539.44;5160428;27;20192;-86
2022/11/03 04:47:16;;;;;;;10.33;2.47;;;;;;;-145.69;100.00;52527.56;5164099;27;20287;-86
2022/11/03 04:49:46;;;;;;;12.53;2.87;;;;;;;-145.69;100.00;52533.50;5164592;27;20235;-86
2022/11/03 04:52:19;;;;;;;7.67;2.63;;;;;;;-145.69;100.00;52535.47;5163789;27;20200;-85
2022/11/03 04:54:48;;;;;;;17.13;3.00;;;;;;;-145.69;100.00;52535.47;5150069;27;20189;-86
2022/11/03 04:57:17;;;;;;;7.47;2.90;;;;;;;-145.69;100.00;52553.31;5139974;27;20713;-86
2022/11/03 04:59:49;;;;;;;14.87;2.90;;;;;;;-145.69;100.00;52577.06;5137910;27;20201;-86
2022/11/03 05:02:19;;;;;;;19.17;3.00;;;;;;;-145.69;100.00;52563.22;5138448;27;20571;-86
2022/11/03 05:04:46;;;;;;;7.10;2.53;;;;;;;-145.69;100.00;52537.47;5151112;27;20637;-86
2022/11/03 05:07:24;;;;;;;14.03;2.70;;;;;;;-145.69;100.00;52525.59;5157616;27;20557;-86
2022/11/03 05:09:51;;;;;;;9.80;2.10;;;;;;;-145.69;100.00;52551.31;5156422;27;20223;-85
2022/11/03 05:12:19;;;;;;;11.07;1.87;;;;;;;-145.69;100.00;52563.22;5157262;27;20256;-86
2022/11/03 05:14:45;;;;;;;13.50;2.20;;;;;;;-145.69;100.00;52569.16;5156966;27;20200;-86
2022/11/03 05:17:22;;;;;;;10.10;2.00;;;;;;;-145.69;100.00;52523.59;5140565;27;20686;-87
2022/11/03 05:19:50;;;;;;;12.40;2.13;;;;;;;-145.69;100.00;52527.56;5137754;27;20196;-86
2022/11/03 05:22:21;;;;;;;13.20;2.97;;;;;;;-145.69;100.00;52511.72;5137247;27;20666;-86
2022/11/03 05:24:52;;;;;;;10.77;2.00;;;;;;;-145.69;100.00;52521.63;5141571;27;20197;-86
2022/11/03 05:27:22;;;;;;;6.30;2.10;;;;;;;-145.69;100.00;52537.47;5143130;27;20181;-86
2022/11/03 05:29:50;;;;;;;6.00;1.73;;;;;;;-145.69;100.00;52555.28;5144672;27;20197;-86
2022/11/03 05:32:23;;;;;;;5.70;2.03;;;;;;;-145.69;100.00;52555.28;5145458;27;20236;-86
2022/11/03 05:34:54;;;;;;;9.10;2.40;;;;;;;-145.69;100.00;52583.00;5143684;27;20255;-86
2022/11/03 05:37:25;;;;;;;9.93;2.07;;;;;;;-145.69;100.00;52537.47;5143780;27;20220;-86
2022/11/03 05:39:56;;;;;;;7.20;2.00;;;;;;;-145.69;100.00;52567.16;5140539;27;20195;-87
2022/11/03 05:42:34;;;;;;;13.00;2.20;;;;;;;-145.69;100.00;52521.63;5137851;27;20206;-86
2022/11/03 05:45:03;;;;;;;7.53;2.90;;;;;;;-145.69;100.00;52501.81;5137521;27;20202;-87
2022/11/03 05:47:37;;;;;;;5.47;2.27;;;;;;;-145.69;100.00;52523.59;5136210;27;20193;-87
2022/11/03 05:50:15;;;;;;;10.00;2.37;;;;;;;-145.69;100.00;52545.38;5140093;27;20200;-85
2022/11/03 05:52:47;;;;;;;13.93;2.57;;;;;;;-145.69;100.00;52523.59;5145764;27;20214;-86
2022/11/03 05:55:30;;;;;;;7.63;2.00;;;;;;;-145.69;100.00;52523.59;5146322;27;20207;-87
2022/11/03 05:58:02;;;;;;;8.57;2.10;;;;;;;-145.69;100.00;52531.53;5138950;27;20602;-82
2022/11/03 06:00:31;;;;;;;11.87;2.23;;;;;;;-145.69;100.00;52579.06;5138920;27;20204;-87
2022/11/03 06:03:01;;;;;;;15.17;2.17;;;;;;;-145.69;100.00;52521.63;5152986;27;20196;-86
2022/11/03 06:05:29;;;;;;;4.83;2.00;;;;;;;-145.69;100.00;52527.56;5162719;27;20223;-86
2022/11/03 06:07:57;;;;;;;8.83;2.37;;;;;;;-145.69;100.00;52523.59;5164747;27;20664;-86
2022/11/03 06:10:27;;;;;;;9.83;2.03;;;;;;;-145.69;100.00;52539.44;5159731;27;20558;-86
2022/11/03 06:12:56;;;;;;;6.67;1.80;;;;;;;-145.69;100.00;52533.50;5158872;27;20206;-87
2022/11/03 06:15:30;;;;;;;8.23;2.30;;;;;;;-145.69;100.00;52535.47;5163009;27;20193;-86
2022/11/03 06:17:57;;;;;;;7.33;2.03;;;;;;;-145.69;100.00;52541.44;5164625;27;20228;-87
2022/11/03 06:20:28;;;;;;;12.37;2.17;;;;;;;-145.69;100.00;52531.53;5159341;27;20192;-86
2022/11/03 06:22:56;;;;;;;12.37;1.90;;;;;;;-145.69;100.00;52539.44;5166503;27;20252;-85
2022/11/03 06:25:28;;;;;;;10.67;1.90;;;;;;;-145.69;100.00;52499.84;5164764;27;20634;-86
2022/11/03 06:27:59;;;;;;;11.40;2.17;;;;;;;-145.69;100.00;52527.56;5169260;27;20195;-86
2022/11/03 06:30:28;;;;;;;11.80;2.60;;;;;;;-145.69;100.00;52511.72;5166595;27;20654;-86
2022/11/03 06:32:58;;;;;;;8.37;2.33;;;;;;;-145.69;100.00;52511.72;5155713;27;20217;-86
2022/11/03 06:35:28;;;;;;;10.40;1.97;;;;;;;-145.69;100.00;52539.44;5145498;27;20635;-87
2022/11/03 06:37:56;;;;;;;17.17;2.40;;;;;;;-145.69;100.00;52537.47;5137857;27;20228;-86
2022/11/03 06:40:34;;;;;;;10.63;2.40;;;;;;;-145.69;100.00;52523.59;5140158;27;20204;-85
2022/11/03 06:43:18;;;;;;;9.33;2.17;;;;;;;-145.69;100.00;52557.28;5141145;27;20556;-85
2022/11/03 06:45:50;;;;;;;9.93;2.80;;;;;;;-145.69;100.00;52523.59;5142726;27;20211;-85
2022/11/03 06:48:23;;;;;;;10.97;2.53;;;;;;;-145.69;100.00;52505.78;5141121;27;20612;-85
2022/11/03 06:50:51;;;;;;;8.10;2.50;;;;;;;-145.69;100.00;52547.38;5144186;27;20200;-85
2022/11/03 06:53:27;;;;;;;12.40;2.97;;;;;;;-145.69;100.00;52555.28;5144469;27;20204;-85
2022/11/03 06:55:54;;;;;;;16.47;2.40;;;;;;;-145.69;100.00;52557.28;5144126;27;20204;-85
2022/11/03 06:58:26;;;;;;;18.43;3.30;;;;;;;-145.69;100.00;52507.75;5144987;27;20249;-86
2022/11/03 07:00:57;;;;;;;8.52;3.08;;;;;;;-145.69;100.00;52535.47;5143355;27;20464;-84
2022/11/03 07:03:27;;;;;;;10.47;3.00;;;;;;;-145.69;100.00;52539.44;5141694;27;20604;-84
2022/11/03 07:06:01;;;;;;;12.47;3.30;;;;;;;-145.69;100.00;52517.66;5141543;27;20196;-85
2022/11/03 07:08:31;;;;;;;9.27;2.87;;;;;;;-145.69;100.00;52503.81;5146599;27;20202;-85
2022/11/03 07:11:02;;;;;;;12.40;3.00;;;;;;;-145.69;100.00;52507.75;5162537;27;20195;-83
2022/11/03 07:13:32;;;;;;;11.33;2.93;;;;;;;-145.69;100.00;52503.81;5161596;27;20196;-84
2022/11/03 07:15:58;;;;;;;7.50;2.67;;;;;;;-145.69;100.00;52491.91;5159776;27;20203;-83
2022/11/03 07:18:27;;;;;;;11.00;2.90;;;;;;;-145.69;100.00;52484.00;5161460;27;20228;-84
2022/11/03 07:20:55;;;;;;;11.43;3.37;;;;;;;-145.69;100.00;52507.75;5161160;27;20188;-85
2022/11/03 07:23:26;;;;;;;6.30;3.07;;;;;;;-145.69;100.00;52515.69;5160929;27;20654;-84
2022/11/03 07:25:56;;;;;;;8.73;2.63;;;;;;;-145.69;100.00;52543.41;5161338;27;20589;-84
2022/11/03 07:28:26;;;;;;;7.27;2.30;;;;;;;-145.69;100.00;52515.69;5161314;27;20205;-84
2022/11/03 07:30:52;;;;;;;8.33;2.57;;;;;;;-145.69;100.00;52515.69;5160947;27;20654;-84
2022/11/03 07:33:22;;;;;;;5.27;2.20;;;;;;;-145.69;100.00;52511.72;5155651;27;20234;-84
2022/11/03 07:35:49;;;;;;;8.97;2.63;;;;;;;-145.69;100.00;52499.84;5143418;27;20204;-84
2022/11/03 07:38:19;;;;;;;9.03;2.80;;;;;;;-145.69;100.00;52472.13;5141318;27;20457;-84
2022/11/03 07:40:48;;;;;;;6.80;2.80;;;;;;;-145.69;100.00;52478.06;5144120;27;20204;-84
2022/11/03 07:43:18;;;;;;;7.07;2.60;;;;;;;-145.69;100.00;52491.91;5144319;27;20283;-84
2022/11/03 07:45:49;;;;;;;4.80;1.97;;;;;;;-145.69;100.00;52472.13;5143972;27;20197;-84
2022/11/03 07:48:22;;;;;;;7.03;2.30;;;;;;;-145.69;100.00;52497.84;5143041;27;20429;-84
2022/11/03 07:50:51;;;;;;;6.40;2.13;;;;;;;-145.69;100.00;52503.81;5142962;27;20220;-84
2022/11/03 07:53:24;;;;;;;5.17;2.00;;;;;;;-145.69;100.00;52503.81;5141586;27;20218;-84
2022/11/03 07:55:54;;;;;;;5.90;2.07;;;;;;;-145.69;100.00;52493.91;5139737;27;20200;-84
2022/11/03 07:58:23;;;;;;;5.27;2.13;;;;;;;-145.69;100.00;52497.84;5139140;27;20227;-83
2022/11/03 08:00:56;;;;;;;4.93;2.03;;;;;;;-145.69;100.00;52495.88;5139228;27;20677;-83
2022/11/03 08:03:28;;;;;;;6.80;2.10;;;;;;;-145.69;100.00;52462.22;5140202;27;20227;-83
2022/11/03 08:05:54;;;;;;;5.67;2.13;;;;;;;-145.69;100.00;52464.19;5160326;27;20196;-83
2022/11/03 08:08:21;;;;;;;6.80;2.27;;;;;;;-145.69;100.00;52468.16;5160541;27;20207;-85
2022/11/03 08:10:48;;;;;;;5.60;1.80;;;;;;;-145.69;100.00;52503.81;5163252;27;20557;-84
2022/11/03 08:13:15;;;;;;;7.47;2.10;;;;;;;-145.69;100.00;52491.91;5165895;27;20199;-85
2022/11/03 08:15:42;;;;;;;8.07;2.27;;;;;;;-145.69;100.00;52450.31;5141145;27;20208;-84
2022/11/03 08:18:09;;;;;;;5.73;2.00;;;;;;;-145.69;100.00;52466.16;5141068;27;20232;-84
2022/11/03 08:20:35;;;;;;;6.97;2.17;;;;;;;-145.69;100.00;52448.34;5139256;27;20193;-82
2022/11/03 08:23:01;;;;;;;7.30;2.20;;;;;;;-145.69;100.00;52476.06;5138362;27;20204;-83
2022/11/03 08:25:28;;;;;;;9.90;2.20;;;;;;;-145.69;100.00;52422.59;5138000;27;20597;-83
2022/11/03 08:27:54;;;;;;;7.20;2.10;;;;;;;-145.69;100.00;52440.44;5160970;27;20198;-83
2022/11/03 08:30:22;;;;;;;4.17;1.90;;;;;;;-145.69;100.00;52470.13;5162211;27;20200;-83
2022/11/03 08:32:49;;;;;;;7.60;2.20;;;;;;;-145.69;100.00;52456.28;5162030;27;20192;-83
2022/11/03 08:35:16;;;;;;;7.37;2.30;;;;;;;-145.69;100.00;52408.75;5164585;27;20235;-83
2022/11/03 08:37:42;;;;;;;5.80;2.13;;;;;;;-145.69;100.00;52448.34;5165094;27;20243;-85
2022/11/03 08:40:11;;;;;;;5.25;1.77;;;;;;;-145.69;100.00;52442.41;5164320;27;20204;-83
2022/11/03 08:42:38;;;;;;;6.07;2.17;;;;;;;-145.69;100.00;52438.44;5126231;27;20285;-83
2022/11/03 08:45:05;;;;;;;7.72;1.67;;;;;;;-145.69;100.00;52422.59;5124397;28;20197;-84
2022/11/03 08:47:33;;;;;;;6.93;1.98;;;;;;;-145.69;100.00;52476.06;5123464;28;20678;-84
2022/11/03 08:50:00;;;;;;;6.57;2.38;;;;;;;-145.69;100.00;52448.34;5138076;27;20199;-84
2022/11/03 08:52:26;;;;;;;7.53;2.28;;;;;;;-145.69;100.00;52446.38;5160406;27;20758;-84
2022/11/03 08:54:53;;;;;;;4.43;2.03;;;;;;;-145.69;100.00;52418.63;5161079;27;20697;-81
2022/11/03 08:57:19;;;;;;;5.05;1.90;;;;;;;-145.69;100.00;52444.38;5160055;27;20196;-81
2022/11/03 08:59:46;;;;;;;5.80;1.95;;;;;;;-145.69;100.00;52420.63;5158417;27;20199;-83
2022/11/03 09:02:12;;;;;;;6.50;2.20;;;;;;;-145.69;100.00;52404.78;5137028;27;20195;-83
2022/11/03 09:04:40;;;;;;;7.43;1.83;;;;;;;-145.69;100.00;52406.75;5136434;27;20289;-83
2022/11/03 09:07:07;;;;;;;4.53;1.38;;;;;;;-145.69;100.00;52406.75;5136490;27;20204;-83
2022/11/03 09:09:33;;;;;;;6.70;1.75;;;;;;;-145.69;90.86;52375.06;5140973;27;20673;-83
2022/11/03 09:12:00;;;;;;;4.93;1.73;;;;;;;-145.69;96.45;52444.38;5142854;27;20195;-81
2022/11/03 09:14:27;;;;;;;5.47;1.77;;;;;;;-145.69;93.49;52424.59;5138587;27;20195;-84
2022/11/03 09:16:53;;;;;;;6.65;1.92;;;;;;;-145.69;100.00;52390.91;5150496;27;20184;-82
2022/11/03 09:19:20;;;;;;;5.50;1.90;;;;;;;-145.69;98.93;52402.78;5146055;27;20220;-82
2022/11/03 09:21:48;;;;;;;4.30;1.67;;;;;;;-145.69;87.83;52383.00;5141613;27;20705;-83
2022/11/03 09:24:14;;;;;;;4.18;1.70;;;;;;;-145.69;92.83;52381.00;5142784;27;20197;-82
2022/11/03 09:26:41;;;;;;;4.65;1.70;;;;;;;-145.69;96.45;52381.00;5161993;27;20192;-83
2022/11/03 09:29:07;;;;;;;3.17;1.60;;;;;;;-145.69;92.40;52388.94;5162859;27;20192;-83
2022/11/03 09:31:34;;;;;;;4.85;1.75;;;;;;;-145.69;92.80;52390.91;5141564;27;20197;-83
2022/11/03 09:34:00;;;;;;;3.40;1.30;;;;;;;-145.69;94.92;52355.28;5143373;27;20232;-83
2022/11/03 09:36:27;;;;;;;3.78;1.60;;;;;;;-145.69;92.33;52373.09;5144286;27;20283;-83
2022/11/03 09:38:55;;;;;;;6.45;1.58;;;;;;;-145.69;94.62;52383.00;5144966;27;20563;-83
2022/11/03 09:41:22;;;;;;;2.80;1.30;;;;;;;-145.69;94.56;52420.63;5145119;27;20195;-83
2022/11/03 09:43:49;;;;;;;3.22;1.40;;;;;;;-145.69;95.15;52408.75;5147121;27;20197;-83
2022/11/03 09:46:16;;;;;;;3.97;1.50;;;;;;;-145.69;94.71;52402.78;5144995;27;20193;-83
2022/11/03 09:48:43;;;;;;;3.45;1.38;;;;;;;-145.69;93.44;52373.09;5147376;27;20226;-83
2022/11/03 09:51:13;;;;;;;6.63;1.63;;;;;;;-145.69;91.16;52404.78;5139976;27;20200;-84
2022/11/03 09:53:40;;;;;;;3.58;1.45;;;;;;;-145.69;92.52;52392.91;5137839;27;20203;-83
2022/11/03 09:56:10;;;;;;;3.20;1.67;;;;;;;-145.69;95.28;52390.91;5136874;27;20682;-83
2022/11/03 09:58:36;;;;;;;5.25;1.70;;;;;;;-145.69;92.40;52367.16;5136740;27;20690;-83
2022/11/03 10:01:04;;;;;;;4.10;1.42;;;;;;;-145.69;89.59;52351.31;5138236;27;20651;-84
2022/11/03 10:03:31;;;;;;;7.15;1.85;;;;;;;-145.69;90.75;52351.31;5138974;27;20196;-84
2022/11/03 10:05:58;;;;;;;3.58;2.05;;;;;;;-145.69;91.14;52408.75;5157756;27;20196;-84
2022/11/03 10:08:28;;;;;;;6.35;1.90;;;;;;;-145.69;86.97;52345.38;5157112;27;20198;-84
2022/11/03 10:10:55;;;;;;;5.80;2.00;;;;;;;-145.69;87.78;52331.50;5157577;27;20196;-84
2022/11/03 10:13:29;;;;;;;6.63;2.88;;;;;;;-145.69;85.25;52363.19;5156057;27;20196;-84
2022/11/03 10:15:56;;;;;;;2.88;1.40;;;;;;;-145.69;81.39;52373.09;5150857;27;20203;-84
2022/11/03 10:18:24;;;;;;;5.00;1.50;;;;;;;-145.69;81.03;52377.06;5135490;27;20247;-83
2022/11/03 10:20:50;;;;;;;7.25;3.22;;;;;;;-145.69;84.76;52369.13;5136754;27;20197;-83
2022/11/03 10:23:17;;;;;;;7.47;4.30;;;;;;;-145.69;69.67;52384.97;5136437;27;20291;-84
2022/11/03 10:25:45;;;;;;;3.75;1.50;;;;;;;-145.69;76.08;52349.31;5135784;27;20197;-84
2022/11/03 10:28:15;;;;;;;3.28;1.58;;;;;;;-145.69;68.87;52365.16;5143181;27;20227;-84
2022/11/03 10:30:54;;;;;;;3.78;1.83;;;;;;;-145.69;60.82;52349.31;5156353;27;20199;-83
2022/11/03 10:33:29;;;;;;;5.43;2.08;;;;;;;-145.69;67.85;52323.59;5142132;27;20229;-84
2022/11/03 10:35:57;;;;;;;5.20;2.53;;;;;;;-145.69;59.07;52357.25;5115257;28;20648;-84
2022/11/03 10:38:29;;;;;;;5.55;1.73;;;;;;;-145.69;56.97;52351.31;5114423;28;20221;-83
2022/11/03 10:40:56;;;;;;;5.70;2.40;;;;;;;-145.69;65.66;52325.56;5142540;27;20917;-83
2022/11/03 10:43:23;;;;;;;7.68;2.40;;;;;;;-145.69;58.96;52293.88;5156994;27;20196;-83
2022/11/03 10:45:54;;;;;;;7.82;2.40;;;;;;;-145.69;54.64;52337.44;5157344;27;20199;-84
2022/11/03 10:48:25;;;;;;;5.82;2.65;;;;;;;-145.69;58.09;52305.75;5160152;27;20260;-83
2022/11/03 10:50:51;;;;;;;4.63;1.40;;;;;;;-145.69;55.06;52345.38;5158184;27;20196;-83
2022/11/03 10:53:20;;;;;;;6.55;2.05;;;;;;;-145.69;56.81;52313.69;5142582;27;20662;-83
2022/11/03 10:55:47;;;;;;;2.53;1.38;;;;;;;-145.69;59.99;52309.72;5138186;27;20605;-84
2022/11/03 10:58:14;;;;;;;2.50;1.40;;;;;;;-145.69;57.02;52303.78;5136004;27;20250;-83
2022/11/03 11:00:42;;;;;;;3.88;1.30;;;;;;;-145.69;57.88;52337.44;5135164;27;20197;-83
2022/11/03 11:03:08;;;;;;;3.60;1.55;;;;;;;-145.69;57.88;52321.59;5134566;27;20207;-84
2022/11/03 11:05:44;;;;;;;4.88;1.60;;;;;;;-145.69;54.58;52311.69;5151532;27;20192;-83
2022/11/03 11:08:10;;;;;;;7.32;2.17;;;;;;;-145.69;55.77;52317.66;5155305;27;20199;-84
2022/11/03 11:10:37;;;;;;;3.53;1.42;;;;;;;-145.69;54.13;52309.72;5156311;27;20221;-84
2022/11/03 11:13:05;;;;;;;3.13;1.60;;;;;;;-145.69;54.66;52329.53;5156157;27;20604;-83
2022/11/03 11:15:37;;;;;;;3.30;1.35;;;;;;;-145.69;63.50;52333.47;5154142;27;20202;-84
2022/11/03 11:18:04;;;;;;;4.95;1.60;;;;;;;-145.69;54.13;52347.34;5155844;27;20192;-82
2022/11/03 11:20:33;;;;;;;10.10;2.95;;;;;;;-145.69;55.68;52307.75;5155760;27;20227;-83
2022/11/03 11:23:48;;;;;;;7.18;1.60;;;;;;;-145.69;55.96;52305.75;5156111;27;20380;-84
2022/11/03 11:26:33;;;;;;;3.80;1.42;;;;;;;-145.69;58.68;52313.69;5135300;27;20224;-83
2022/11/03 11:29:45;;;;;;;4.72;1.67;;;;;;;-145.69;55.93;52353.28;5134708;28;20196;-84
2022/11/03 11:32:50;;;;;;;4.95;1.30;;;;;;;-145.69;54.31;52319.63;5135172;27;20234;-83
2022/11/03 11:35:38;;;;;;;7.30;1.52;;;;;;;-145.69;62.22;52313.69;5124960;28;20259;-85